Time;durP1;ratioP1;P1;durP2;ratioP2;P2;SDS_P1;SDS_P2;PMS_P1;PMS_P2;Temp;Humidity;BMP_temperature;BMP_pressure;BME280_temperature;BME280_humidity;BME280_pressure;Samples;Min_cycle;Max_cycle;Signal;HPM_P1;HPM_P2
2022/05/24 00:02:01;;;;;;;29.33;17.85;;;14.30;99.90;;;;;;5023292;28;20029;-61
2022/05/24 00:04:27;;;;;;;23.45;17.73;;;14.30;99.90;;;;;;5026939;28;20040;-60
2022/05/24 00:06:53;;;;;;;25.75;17.73;;;14.30;99.90;;;;;;5007218;28;20034;-61
2022/05/24 00:09:18;;;;;;;28.77;18.70;;;14.40;99.90;;;;;;5012928;28;20579;-60
2022/05/24 00:11:44;;;;;;;26.73;17.98;;;14.40;99.90;;;;;;5028345;28;20037;-61
2022/05/24 00:14:09;;;;;;;27.50;18.80;;;14.40;99.90;;;;;;5028595;28;20410;-60
2022/05/24 00:16:35;;;;;;;26.00;18.35;;;14.40;99.90;;;;;;5029050;28;20052;-59
2022/05/24 00:19:01;;;;;;;28.95;17.70;;;14.40;99.90;;;;;;5028072;28;20045;-59
2022/05/24 00:21:26;;;;;;;25.50;17.02;;;14.40;99.90;;;;;;5027172;28;20037;-61
2022/05/24 00:23:52;;;;;;;24.80;17.05;;;14.40;99.90;;;;;;5014057;28;20470;-61
2022/05/24 00:26:27;;;;;;;21.77;16.35;;;14.40;99.90;;;;;;5017891;28;20030;-60
2022/05/24 00:28:53;;;;;;;22.55;16.58;;;14.40;99.90;;;;;;5027212;28;20033;-61
2022/05/24 00:31:19;;;;;;;22.50;16.40;;;14.40;99.90;;;;;;5023266;28;20502;-61
2022/05/24 00:33:44;;;;;;;24.10;17.67;;;14.50;99.90;;;;;;5026362;28;20061;-60
2022/05/24 00:36:10;;;;;;;24.40;15.63;;;14.50;99.90;;;;;;5011554;28;20040;-61
2022/05/24 00:38:36;;;;;;;20.13;15.77;;;14.50;99.90;;;;;;5021097;28;20018;-61
2022/05/24 00:41:56;;;;;;;19.65;14.75;;;14.50;99.90;;;;;;5021690;28;20050;-61
2022/05/24 00:44:28;;;;;;;21.75;14.70;;;14.50;99.90;;;;;;4968226;28;20042;-60
2022/05/24 00:47:07;;;;;;;24.92;16.45;;;14.50;99.90;;;;;;5006583;28;20042;-60
2022/05/24 00:49:38;;;;;;;19.58;15.88;;;14.50;99.90;;;;;;5021035;28;20025;-61
2022/05/24 00:52:13;;;;;;;22.20;15.45;;;14.50;99.90;;;;;;5025647;28;20156;-60
2022/05/24 00:54:42;;;;;;;20.85;15.57;;;14.50;99.90;;;;;;5021456;28;20105;-61
2022/05/24 00:57:29;;;;;;;21.85;16.17;;;14.50;99.90;;;;;;5024030;28;20067;-60
2022/05/24 01:00:13;;;;;;;22.90;15.10;;;14.50;99.90;;;;;;5018541;28;20461;-61
2022/05/24 01:02:41;;;;;;;25.73;15.18;;;14.50;99.90;;;;;;5013738;28;20022;-61
2022/05/24 01:05:09;;;;;;;21.75;17.05;;;14.50;99.90;;;;;;5006290;28;20120;-60
2022/05/24 01:07:36;;;;;;;24.10;15.63;;;14.50;99.90;;;;;;5027943;28;20025;-61
2022/05/24 01:10:10;;;;;;;18.55;15.15;;;14.50;99.90;;;;;;5022238;28;20017;-60
2022/05/24 01:12:58;;;;;;;;;;;14.50;99.90;;;;;;5024018;28;20486;-60
2022/05/24 01:15:25;;;;;;;20.85;14.88;;;14.50;99.90;;;;;;5028601;28;19917;-60
2022/05/24 01:17:53;;;;;;;19.50;14.23;;;14.50;99.90;;;;;;4990501;28;20388;-61
2022/05/24 01:20:19;;;;;;;20.40;14.10;;;14.50;99.90;;;;;;5024834;28;20045;-60
2022/05/24 01:23:06;;;;;;;21.20;15.75;;;14.40;99.90;;;;;;5030017;28;20037;-60
2022/05/24 01:25:46;;;;;;;25.77;16.83;;;14.40;99.90;;;;;;5022476;28;20065;-61
2022/05/24 01:28:19;;;;;;;21.25;16.65;;;14.40;99.90;;;;;;5019631;28;20444;-61
2022/05/24 01:30:44;;;;;;;20.50;15.50;;;14.40;99.90;;;;;;5021695;28;20098;-61
2022/05/24 01:36:10;;;;;;;20.20;15.68;;;14.40;99.90;;;;;;5028645;28;20107;-61
2022/05/24 01:38:39;;;;;;;22.38;16.45;;;14.40;99.90;;;;;;5003301;28;20041;-60
2022/05/24 01:41:06;;;;;;;24.05;16.38;;;14.40;99.90;;;;;;5021217;28;20033;-61
2022/05/24 01:43:31;;;;;;;19.80;16.17;;;14.40;99.90;;;;;;5025564;28;20037;-59
2022/05/24 01:46:03;;;;;;;20.30;14.90;;;14.50;99.90;;;;;;5028165;28;20109;-60
2022/05/24 01:48:50;;;;;;;19.40;14.45;;;14.40;99.90;;;;;;5033802;28;20021;-58
2022/05/24 01:51:24;;;;;;;21.58;13.90;;;14.40;99.90;;;;;;5033005;28;20570;-61
2022/05/24 01:53:55;;;;;;;18.85;13.70;;;14.40;99.90;;;;;;5032506;28;20033;-61
2022/05/24 01:56:29;;;;;;;17.15;13.35;;;14.40;99.90;;;;;;5019842;28;20026;-59
2022/05/24 01:58:56;;;;;;;;;;;14.40;99.90;;;;;;5031374;28;20121;-62
2022/05/24 02:01:34;;;;;;;21.55;13.25;;;14.40;99.90;;;;;;5032618;28;20004;-60
2022/05/24 02:04:03;;;;;;;17.52;12.57;;;14.40;99.90;;;;;;5032616;28;20025;-61
2022/05/24 02:06:30;;;;;;;16.15;12.40;;;14.40;99.90;;;;;;5030230;28;20096;-59
2022/05/24 02:08:55;;;;;;;19.00;14.13;;;14.40;99.90;;;;;;5033382;28;20052;-61
2022/05/24 02:11:28;;;;;;;15.80;12.00;;;14.40;99.90;;;;;;5032184;28;20060;-61
2022/05/24 02:14:08;;;;;;;18.90;14.38;;;14.40;99.90;;;;;;5032947;28;20108;-62
2022/05/24 02:16:39;;;;;;;21.00;12.70;;;14.40;99.90;;;;;;5022730;28;20037;-61
2022/05/24 02:19:07;;;;;;;19.98;14.15;;;14.50;99.90;;;;;;5028924;28;20029;-60
2022/05/24 02:21:32;;;;;;;20.25;14.30;;;14.40;99.90;;;;;;4994761;28;20128;-60
2022/05/24 02:23:58;;;;;;;18.63;13.30;;;14.40;99.90;;;;;;5009071;28;20538;-58
2022/05/24 02:26:24;;;;;;;22.55;14.57;;;14.40;99.90;;;;;;5011754;28;20021;-61
2022/05/24 02:28:52;;;;;;;22.98;14.38;;;14.40;99.90;;;;;;5031922;28;20647;-61
2022/05/24 02:31:19;;;;;;;18.77;13.93;;;14.40;99.90;;;;;;5026154;28;20084;-60
2022/05/24 02:33:45;;;;;;;23.02;13.60;;;14.40;99.90;;;;;;5002340;28;20022;-60
2022/05/24 02:36:12;;;;;;;19.48;12.68;;;14.40;99.90;;;;;;5008468;28;20044;-59
2022/05/24 02:38:38;;;;;;;22.67;13.77;;;14.40;99.90;;;;;;4990320;28;20057;-60
2022/05/24 02:43:48;;;;;;;14.77;11.98;;;14.50;99.90;;;;;;5024128;28;20039;-60
2022/05/24 02:46:16;;;;;;;18.77;13.48;;;14.50;99.90;;;;;;5029882;28;20423;-61
2022/05/24 02:48:42;;;;;;;18.55;14.02;;;14.40;99.90;;;;;;5021502;28;20087;-61
2022/05/24 02:51:09;;;;;;;17.42;12.55;;;14.40;99.90;;;;;;5029191;28;20026;-61
2022/05/24 02:53:35;;;;;;;17.52;13.13;;;14.40;99.90;;;;;;5025783;28;20068;-60
2022/05/24 02:56:03;;;;;;;21.08;13.50;;;14.40;99.90;;;;;;5019887;28;20294;-60
2022/05/24 02:58:28;;;;;;;18.65;12.57;;;14.40;99.90;;;;;;5030724;28;20491;-59
2022/05/24 03:00:54;;;;;;;15.05;11.15;;;14.30;99.90;;;;;;5025309;28;20056;-59
2022/05/24 03:03:19;;;;;;;16.05;10.88;;;14.30;99.90;;;;;;5025311;28;20100;-60
2022/05/24 03:05:45;;;;;;;14.77;10.18;;;14.30;99.90;;;;;;5025374;28;20503;-61
2022/05/24 03:10:54;;;;;;;12.55;9.90;;;14.30;99.90;;;;;;5027572;28;20553;-62
2022/05/24 03:16:11;;;;;;;8.30;6.72;;;14.20;99.90;;;;;;5023135;28;20048;-60
2022/05/24 03:18:37;;;;;;;12.77;8.05;;;14.10;99.90;;;;;;5025491;28;20064;-61
2022/05/24 03:21:03;;;;;;;11.60;8.80;;;14.00;99.90;;;;;;5023596;28;20465;-61
2022/05/24 03:23:29;;;;;;;10.75;8.45;;;14.10;99.90;;;;;;5028203;28;20511;-61
2022/05/24 03:25:54;;;;;;;11.75;8.35;;;14.10;99.90;;;;;;5030161;28;20060;-61
2022/05/24 03:28:20;;;;;;;10.00;8.35;;;14.00;99.90;;;;;;5024323;28;20060;-61
2022/05/24 03:30:47;;;;;;;10.43;7.72;;;14.00;99.90;;;;;;5022184;28;20060;-61
2022/05/24 03:33:13;;;;;;;10.55;8.00;;;14.00;99.90;;;;;;5029842;28;20029;-61
2022/05/24 03:35:39;;;;;;;9.73;7.55;;;14.00;99.90;;;;;;5021920;28;20227;-61
2022/05/24 03:38:05;;;;;;;11.27;8.02;;;14.00;99.90;;;;;;5005084;28;20073;-60
2022/05/24 03:40:31;;;;;;;11.40;8.10;;;14.00;99.90;;;;;;5022147;28;20060;-58
2022/05/24 03:42:56;;;;;;;9.63;7.68;;;13.90;99.90;;;;;;5027511;28;20041;-62
2022/05/24 03:45:23;;;;;;;12.98;7.97;;;13.90;99.90;;;;;;5023788;28;20029;-60
2022/05/24 03:47:49;;;;;;;11.15;7.28;;;13.90;99.90;;;;;;5029209;28;20037;-61
2022/05/24 03:50:15;;;;;;;12.05;7.85;;;13.90;99.90;;;;;;5025918;28;20026;-60
2022/05/24 03:52:40;;;;;;;12.93;9.23;;;13.90;99.90;;;;;;5024826;28;20014;-60
2022/05/24 03:55:07;;;;;;;13.77;8.68;;;13.80;99.90;;;;;;5042174;28;20025;-60
2022/05/24 04:00:18;;;;;;;;;;;13.70;99.90;;;;;;5018199;28;20037;-61
2022/05/24 04:02:44;;;;;;;15.27;9.95;;;13.80;99.90;;;;;;5026860;28;19924;-61
2022/05/24 04:05:10;;;;;;;15.25;10.52;;;13.80;99.90;;;;;;5023712;28;20065;-61
2022/05/24 04:07:36;;;;;;;17.65;10.93;;;13.80;99.90;;;;;;5027212;28;20056;-62
2022/05/24 04:10:03;;;;;;;14.55;11.45;;;13.80;99.90;;;;;;5023428;28;20030;-61
2022/05/24 04:12:29;;;;;;;15.48;11.13;;;13.80;99.90;;;;;;5027101;28;20017;-60
2022/05/24 04:14:55;;;;;;;12.48;11.18;;;13.80;99.90;;;;;;5023096;28;20033;-61
2022/05/24 04:17:21;;;;;;;18.90;10.50;;;13.80;99.90;;;;;;5028023;28;20602;-61
2022/05/24 04:19:46;;;;;;;17.60;7.97;;;13.80;99.90;;;;;;5011092;28;20072;-61
2022/05/24 04:22:12;;;;;;;11.43;6.65;;;13.80;99.90;;;;;;5028141;28;20116;-61
2022/05/24 04:24:37;;;;;;;11.13;5.65;;;13.80;99.90;;;;;;5028732;28;20040;-61
2022/05/24 04:27:05;;;;;;;14.13;5.60;;;13.70;99.90;;;;;;5026174;28;20033;-61
2022/05/24 04:29:30;;;;;;;9.20;4.97;;;13.70;99.90;;;;;;5028078;28;20499;-60
2022/05/24 04:31:56;;;;;;;9.05;4.68;;;13.60;99.90;;;;;;5028539;28;20111;-61
2022/05/24 04:34:21;;;;;;;6.88;4.78;;;13.60;99.90;;;;;;5025534;28;20030;-61
2022/05/24 04:36:47;;;;;;;10.15;5.03;;;13.50;99.90;;;;;;5020815;28;20033;-61
2022/05/24 04:39:13;;;;;;;13.50;5.07;;;13.40;99.90;;;;;;5005110;28;20046;-61
2022/05/24 04:44:23;;;;;;;10.40;4.95;;;13.10;99.90;;;;;;5023432;28;20079;-61
2022/05/24 04:47:07;;;;;;;14.73;4.85;;;13.00;99.90;;;;;;5020850;28;20496;-61
2022/05/24 04:49:37;;;;;;;12.10;5.35;;;12.90;99.90;;;;;;5024665;28;20026;-61
2022/05/24 04:52:04;;;;;;;11.32;5.20;;;12.90;99.90;;;;;;5017431;28;20505;-60
2022/05/24 04:54:30;;;;;;;12.18;4.72;;;12.80;99.90;;;;;;5027759;28;20029;-60
2022/05/24 04:56:55;;;;;;;12.05;5.55;;;12.80;99.90;;;;;;5019507;28;20040;-60
2022/05/24 04:59:21;;;;;;;13.88;5.50;;;12.80;99.90;;;;;;5029089;28;20036;-61
2022/05/24 05:01:46;;;;;;;11.38;5.55;;;12.70;99.90;;;;;;5026831;28;20029;-61
2022/05/24 05:04:12;;;;;;;16.70;6.22;;;12.60;99.90;;;;;;5028419;28;20442;-60
2022/05/24 05:06:43;;;;;;;12.60;4.68;;;12.60;99.90;;;;;;5028129;28;20025;-61
2022/05/24 05:09:10;;;;;;;13.20;4.65;;;12.50;99.90;;;;;;5021103;28;20030;-61
2022/05/24 05:11:35;;;;;;;18.02;5.85;;;12.40;99.90;;;;;;5017268;28;20045;-61
2022/05/24 05:14:01;;;;;;;10.88;6.13;;;12.30;99.90;;;;;;5023447;28;20045;-59
2022/05/24 05:16:26;;;;;;;15.15;5.97;;;12.30;99.90;;;;;;5007364;28;20511;-61
2022/05/24 05:18:52;;;;;;;8.95;5.82;;;12.30;99.90;;;;;;5028059;28;20037;-60
2022/05/24 05:21:17;;;;;;;16.33;5.97;;;12.30;99.90;;;;;;5031271;28;20025;-60
2022/05/24 05:23:43;;;;;;;11.02;5.78;;;12.30;99.90;;;;;;5032002;28;20068;-61
2022/05/24 05:26:09;;;;;;;13.45;6.88;;;12.20;99.90;;;;;;5026623;28;20034;-59
2022/05/24 05:28:34;;;;;;;16.00;5.63;;;12.20;99.90;;;;;;5029368;28;20029;-61
2022/05/24 05:31:22;;;;;;;16.40;5.75;;;12.20;99.90;;;;;;5031467;28;20026;-61
2022/05/24 05:33:49;;;;;;;12.02;5.07;;;12.30;99.90;;;;;;5032699;28;20125;-60
2022/05/24 05:36:15;;;;;;;15.18;5.22;;;12.20;99.90;;;;;;5031071;28;20028;-61
2022/05/24 05:38:45;;;;;;;10.52;4.55;;;12.20;99.90;;;;;;5007420;28;20053;-60
2022/05/24 05:41:21;;;;;;;15.25;4.55;;;12.20;99.90;;;;;;5022832;28;20036;-59
2022/05/24 05:43:48;;;;;;;7.15;4.03;;;12.20;99.90;;;;;;5028926;28;20045;-61
2022/05/24 05:46:14;;;;;;;12.13;4.35;;;12.20;99.90;;;;;;5031895;28;20121;-60
2022/05/24 05:48:41;;;;;;;11.18;4.15;;;12.30;99.90;;;;;;5028513;28;20084;-61
2022/05/24 05:51:08;;;;;;;6.93;3.25;;;12.40;99.90;;;;;;5028214;28;20033;-61
2022/05/24 05:53:34;;;;;;;9.15;4.22;;;12.40;99.90;;;;;;5031013;28;20021;-61
2022/05/24 05:56:00;;;;;;;7.40;3.65;;;12.40;99.90;;;;;;5030178;28;20036;-61
2022/05/24 05:58:26;;;;;;;9.60;3.85;;;12.40;99.90;;;;;;5028962;28;20495;-60
2022/05/24 06:00:51;;;;;;;10.60;3.60;;;12.40;99.90;;;;;;5025837;28;20041;-61
2022/05/24 06:03:18;;;;;;;12.65;3.83;;;12.40;99.90;;;;;;5023927;28;20450;-61
2022/05/24 06:05:47;;;;;;;12.23;4.35;;;12.40;99.90;;;;;;5023907;28;20031;-60
2022/05/24 06:08:12;;;;;;;7.32;3.70;;;12.40;99.90;;;;;;5029463;28;20071;-59
2022/05/24 06:10:38;;;;;;;10.25;4.22;;;12.50;99.90;;;;;;5025659;28;20025;-61
2022/05/24 06:13:04;;;;;;;11.98;4.57;;;12.40;99.90;;;;;;5030899;28;20021;-61
2022/05/24 06:15:31;;;;;;;17.48;5.07;;;12.40;99.90;;;;;;5028922;28;20112;-60
2022/05/24 06:17:57;;;;;;;9.45;4.85;;;12.40;99.90;;;;;;5020527;28;20650;-61
2022/05/24 06:20:27;;;;;;;15.40;5.68;;;12.40;99.90;;;;;;5021141;28;20033;-61
2022/05/24 06:22:54;;;;;;;13.30;4.65;;;12.30;99.90;;;;;;5028856;28;20025;-61
2022/05/24 06:25:21;;;;;;;13.73;5.13;;;12.30;99.90;;;;;;5021730;28;20491;-60
2022/05/24 06:27:49;;;;;;;25.20;6.03;;;12.30;99.90;;;;;;5031334;28;20108;-61
2022/05/24 06:30:15;;;;;;;13.07;6.50;;;12.30;99.90;;;;;;5024124;28;20022;-60
2022/05/24 06:32:40;;;;;;;12.80;4.68;;;12.30;99.90;;;;;;5030276;28;20065;-59
2022/05/24 06:35:07;;;;;;;11.27;5.03;;;12.40;99.90;;;;;;5022687;28;20061;-61
2022/05/24 06:37:33;;;;;;;15.43;6.72;;;12.40;99.90;;;;;;5023075;28;20108;-61
2022/05/24 06:39:58;;;;;;;10.07;3.97;;;12.50;99.90;;;;;;5003450;28;20141;-60
2022/05/24 06:42:24;;;;;;;12.13;4.75;;;12.60;99.90;;;;;;5027634;28;20029;-61
2022/05/24 06:44:49;;;;;;;14.38;4.55;;;12.70;99.90;;;;;;5025960;28;20485;-61
2022/05/24 06:47:15;;;;;;;13.00;5.00;;;12.80;99.90;;;;;;5028510;28;20410;-61
2022/05/24 06:49:41;;;;;;;8.57;3.85;;;12.80;99.90;;;;;;5030282;28;20041;-61
2022/05/24 06:52:08;;;;;;;9.10;4.47;;;12.70;99.90;;;;;;5030802;28;20087;-60
2022/05/24 06:54:33;;;;;;;9.52;4.43;;;12.60;99.90;;;;;;5021710;28;20048;-58
2022/05/24 06:56:59;;;;;;;11.50;4.05;;;12.70;99.90;;;;;;5021903;28;20030;-61
2022/05/24 07:02:27;;;;;;;5.45;3.03;;;12.60;99.90;;;;;;5030740;28;20076;-60
2022/05/24 07:05:00;;;;;;;6.10;2.38;;;12.60;99.90;;;;;;5025180;28;20029;-61
2022/05/24 07:07:28;;;;;;;12.20;2.50;;;12.80;99.90;;;;;;5022524;28;20038;-61
2022/05/24 07:09:54;;;;;;;10.35;2.65;;;12.90;99.90;;;;;;5029137;28;20033;-60
2022/05/24 07:12:21;;;;;;;7.30;2.00;;;12.90;99.90;;;;;;5029622;28;20025;-61
2022/05/24 07:14:47;;;;;;;7.80;2.20;;;13.00;99.90;;;;;;5027854;28;20036;-60
2022/05/24 07:17:13;;;;;;;6.63;1.80;;;13.20;99.90;;;;;;5020982;28;20033;-61
2022/05/24 07:19:39;;;;;;;4.93;1.90;;;13.20;99.90;;;;;;5029097;28;20089;-60
2022/05/24 07:22:08;;;;;;;3.47;1.80;;;13.50;99.90;;;;;;5029558;28;20121;-61
2022/05/24 07:24:35;;;;;;;3.25;1.38;;;13.80;99.90;;;;;;5021585;28;20036;-60
2022/05/24 07:27:01;;;;;;;6.40;1.92;;;13.90;99.90;;;;;;5016378;28;20057;-62
2022/05/24 07:29:27;;;;;;;4.90;1.70;;;14.10;99.90;;;;;;5019315;28;20432;-61
2022/05/24 07:31:53;;;;;;;5.07;1.98;;;14.10;99.90;;;;;;5026234;28;20024;-61
2022/05/24 07:34:19;;;;;;;4.43;1.83;;;14.10;99.90;;;;;;5029566;28;20021;-61
2022/05/24 07:36:45;;;;;;;5.90;2.08;;;14.10;99.90;;;;;;5029470;28;20029;-61
2022/05/24 07:39:11;;;;;;;6.38;1.58;;;14.30;99.90;;;;;;5004353;28;20084;-60
2022/05/24 07:47:09;;;;;;;2.97;1.55;;;14.60;99.90;;;;;;5027097;28;20129;-61
2022/05/24 07:49:35;;;;;;;3.65;1.42;;;15.10;99.90;;;;;;5030798;28;20022;-61
2022/05/24 07:52:01;;;;;;;4.43;1.27;;;15.50;99.90;;;;;;5029277;28;20056;-61
2022/05/24 07:54:26;;;;;;;4.22;1.38;;;16.40;99.90;;;;;;5027726;28;20041;-60
2022/05/24 07:56:52;;;;;;;3.03;1.30;;;18.10;99.90;;;;;;5024557;28;20084;-61
2022/05/24 07:59:17;;;;;;;5.07;1.10;;;19.60;99.90;;;;;;5021750;28;20061;-62
2022/05/24 08:01:43;;;;;;;2.83;0.85;;;19.20;99.90;;;;;;5029813;28;20030;-62
2022/05/24 08:04:09;;;;;;;4.32;1.85;;;18.70;99.90;;;;;;5028935;28;20025;-62
2022/05/24 08:06:35;;;;;;;5.20;1.05;;;19.50;99.90;;;;;;5022896;28;20021;-60
2022/05/24 08:09:01;;;;;;;2.78;0.70;;;19.70;99.70;;;;;;5028401;28;20017;-62
2022/05/24 08:11:27;;;;;;;1.73;0.73;;;19.30;99.90;;;;;;5030344;28;20032;-62
2022/05/24 08:13:52;;;;;;;3.50;2.03;;;19.10;99.40;;;;;;5023399;28;20022;-61
2022/05/24 08:16:18;;;;;;;3.80;1.10;;;18.90;99.60;;;;;;5028619;28;20029;-61
2022/05/24 08:18:47;;;;;;;4.68;2.15;;;17.90;99.90;;;;;;5024454;28;20435;-61
2022/05/24 08:21:12;;;;;;;4.95;0.95;;;17.20;99.90;;;;;;5017752;28;20022;-61
2022/05/24 08:23:38;;;;;;;3.92;1.00;;;17.00;99.90;;;;;;5024308;28;20391;-61
2022/05/24 08:26:03;;;;;;;3.53;0.93;;;18.20;99.90;;;;;;5024305;28;20109;-61
2022/05/24 08:28:29;;;;;;;7.07;0.95;;;20.10;99.90;;;;;;5027575;28;20033;-61
2022/05/24 08:30:55;;;;;;;1.73;0.80;;;21.10;97.20;;;;;;5023290;28;20051;-61
2022/05/24 08:33:21;;;;;;;6.13;1.17;;;20.80;95.00;;;;;;5029520;28;20060;-60
2022/05/24 08:35:47;;;;;;;3.35;1.27;;;21.50;94.60;;;;;;5027196;28;20494;-60
2022/05/24 08:38:13;;;;;;;3.30;1.10;;;21.60;92.80;;;;;;5000355;28;20061;-60
2022/05/24 08:40:41;;;;;;;2.45;0.80;;;22.20;94.80;;;;;;5020410;28;20447;-60
2022/05/24 08:43:09;;;;;;;3.22;0.70;;;22.70;91.50;;;;;;5027007;28;20479;-60
2022/05/24 08:48:40;;;;;;;3.72;0.93;;;22.70;90.30;;;;;;5011285;28;20037;-59
2022/05/24 08:51:27;;;;;;;3.72;0.95;;;22.40;90.70;;;;;;5024805;28;20029;-61
2022/05/24 08:53:57;;;;;;;2.92;1.02;;;22.70;88.90;;;;;;5027896;28;20049;-60
2022/05/24 08:56:30;;;;;;;1.70;1.10;;;23.50;88.70;;;;;;5018825;28;20048;-58
2022/05/24 08:58:59;;;;;;;;;;;22.60;85.90;;;;;;5029692;28;20033;-60
2022/05/24 09:01:29;;;;;;;2.33;0.90;;;22.40;90.30;;;;;;5022826;28;19928;-61
2022/05/24 09:03:55;;;;;;;2.20;1.25;;;21.60;90.60;;;;;;5026777;28;20091;-60
2022/05/24 09:06:31;;;;;;;2.67;1.13;;;21.10;93.40;;;;;;5028782;28;20038;-58
2022/05/24 09:09:01;;;;;;;2.47;0.60;;;20.30;93.60;;;;;;5030261;28;20336;-58
2022/05/24 09:11:42;;;;;;;2.55;0.73;;;19.60;94.50;;;;;;5027029;28;20048;-61
2022/05/24 09:14:27;;;;;;;5.25;1.30;;;18.80;95.50;;;;;;5027921;28;20457;-62
2022/05/24 09:17:24;;;;;;;4.47;1.17;;;18.30;97.70;;;;;;5027761;28;20029;-61
2022/05/24 09:19:50;;;;;;;3.72;0.82;;;17.90;98.70;;;;;;5024949;28;20441;-60
2022/05/24 09:22:21;;;;;;;1.92;0.90;;;17.30;99.90;;;;;;5018651;28;20038;-61
2022/05/24 09:24:53;;;;;;;5.93;1.50;;;17.00;99.60;;;;;;5021595;28;20041;-60
2022/05/24 09:27:28;;;;;;;5.90;1.30;;;16.70;99.90;;;;;;5026488;28;20508;-59
2022/05/24 09:30:20;;;;;;;4.13;1.38;;;16.40;99.90;;;;;;5029318;28;20083;-60
2022/05/24 09:32:46;;;;;;;5.28;1.70;;;16.20;99.90;;;;;;5026154;28;20033;-60
2022/05/24 09:35:23;;;;;;;3.47;1.27;;;16.40;99.90;;;;;;5023364;28;20033;-61
2022/05/24 09:38:04;;;;;;;5.63;1.23;;;16.80;99.90;;;;;;5031825;28;20571;-61
2022/05/24 09:40:43;;;;;;;2.53;0.73;;;17.80;99.90;;;;;;4993043;28;20109;-60
2022/05/24 09:43:40;;;;;;;2.10;0.60;;;18.50;97.40;;;;;;5020443;28;20029;-60
2022/05/24 09:46:17;;;;;;;4.55;0.90;;;18.80;94.00;;;;;;5003813;28;20975;-59
2022/05/24 09:49:03;;;;;;;2.33;0.60;;;18.30;95.20;;;;;;5027909;28;20034;-60
2022/05/24 09:51:38;;;;;;;3.90;0.93;;;17.60;94.90;;;;;;5027791;28;20017;-61
2022/05/24 09:54:12;;;;;;;3.92;0.98;;;17.20;97.50;;;;;;5021486;28;20026;-60
2022/05/24 09:56:38;;;;;;;2.38;0.93;;;17.10;97.80;;;;;;5011773;28;20081;-61
2022/05/24 09:59:23;;;;;;;2.90;1.10;;;17.20;99.40;;;;;;5024583;28;20462;-60
2022/05/24 10:01:50;;;;;;;1.88;0.70;;;17.40;98.10;;;;;;5016083;28;20088;-60
2022/05/24 10:04:33;;;;;;;2.63;0.60;;;18.00;97.30;;;;;;5027757;28;20438;-61
2022/05/24 10:07:04;;;;;;;;;;;18.30;96.90;;;;;;5032417;28;20053;-61
2022/05/24 10:09:50;;;;;;;2.78;0.70;;;18.60;97.60;;;;;;5035255;28;19952;-61
2022/05/24 10:12:37;;;;;;;3.20;0.60;;;18.80;95.20;;;;;;5030875;28;20494;-60
2022/05/24 10:15:09;;;;;;;5.25;0.55;;;18.90;94.80;;;;;;5030874;28;20762;-60
2022/05/24 10:17:54;;;;;;;1.95;1.10;;;18.40;93.50;;;;;;5029338;28;20026;-60
2022/05/24 10:20:27;;;;;;;1.10;0.70;;;17.90;93.50;;;;;;5033418;28;20541;-63
2022/05/24 10:23:06;;;;;;;5.05;0.70;;;17.50;96.00;;;;;;5028193;28;20414;-61
2022/05/24 10:26:11;;;;;;;3.72;0.65;;;17.50;96.70;;;;;;5019949;28;20034;-61
2022/05/24 10:28:48;;;;;;;3.78;0.77;;;17.50;95.80;;;;;;5020461;28;20578;-61
2022/05/24 10:31:28;;;;;;;3.97;1.10;;;17.30;96.50;;;;;;5019032;28;20488;-60
2022/05/24 10:40:15;;;;;;;2.88;0.80;;;18.40;94.90;;;;;;5005954;28;20051;-60
2022/05/24 10:43:15;;;;;;;2.30;0.70;;;18.80;94.70;;;;;;5027905;28;20037;-60
2022/05/24 10:45:51;;;;;;;5.40;1.30;;;18.80;94.10;;;;;;5029998;28;20104;-61
2022/05/24 10:48:38;;;;;;;0.88;0.75;;;18.70;95.00;;;;;;5024941;28;20510;-61
2022/05/24 10:51:16;;;;;;;8.23;1.20;;;18.50;93.40;;;;;;5022147;28;20105;-61
2022/05/24 10:53:53;;;;;;;2.03;1.13;;;18.50;94.40;;;;;;5024317;28;20093;-60
2022/05/24 10:56:48;;;;;;;1.60;0.73;;;18.70;93.20;;;;;;5024975;28;20466;-61
2022/05/24 10:59:22;;;;;;;3.67;1.55;;;19.10;93.30;;;;;;5016415;28;20120;-60
2022/05/24 11:01:56;;;;;;;1.40;0.60;;;19.30;92.60;;;;;;5022806;28;20033;-60
2022/05/24 11:04:45;;;;;;;1.00;0.55;;;19.50;91.40;;;;;;5026366;28;20033;-62
2022/05/24 11:07:16;;;;;;;5.78;0.95;;;19.60;91.20;;;;;;5026237;28;20523;-62
2022/05/24 11:10:14;;;;;;;3.00;0.75;;;19.70;91.20;;;;;;5028915;28;20599;-60
2022/05/24 11:12:52;;;;;;;2.10;1.05;;;19.20;90.70;;;;;;5027390;28;20038;-61
2022/05/24 11:15:22;;;;;;;4.00;1.00;;;18.80;90.70;;;;;;5027391;28;20022;-60
2022/05/24 11:17:48;;;;;;;5.45;0.85;;;18.70;91.10;;;;;;5029459;28;20025;-60
2022/05/24 11:20:20;;;;;;;5.82;0.95;;;18.60;92.60;;;;;;5028194;28;20060;-60
2022/05/24 11:23:07;;;;;;;1.20;0.63;;;18.70;91.80;;;;;;5029198;28;20398;-59
2022/05/24 11:25:49;;;;;;;2.40;0.90;;;18.90;92.00;;;;;;5023207;28;20080;-61
2022/05/24 11:28:17;;;;;;;1.52;0.70;;;19.30;92.30;;;;;;5027306;28;20045;-61
2022/05/24 11:30:43;;;;;;;4.15;0.90;;;19.80;92.30;;;;;;5022840;28;20033;-60
2022/05/24 11:33:15;;;;;;;2.78;0.68;;;19.90;92.20;;;;;;5027047;28;20084;-61
2022/05/24 11:35:50;;;;;;;4.22;0.70;;;20.20;90.90;;;;;;5024216;28;20466;-61
2022/05/24 11:38:17;;;;;;;2.92;0.68;;;20.70;91.40;;;;;;5024773;28;20048;-61
2022/05/24 11:40:54;;;;;;;3.78;0.80;;;20.90;87.90;;;;;;5008495;28;20045;-61
2022/05/24 11:43:34;;;;;;;1.45;0.60;;;21.30;87.00;;;;;;5026854;28;20034;-61
2022/05/24 11:46:00;;;;;;;5.78;0.90;;;21.50;85.80;;;;;;5024378;28;20402;-60
2022/05/24 11:48:50;;;;;;;4.88;0.70;;;21.10;83.00;;;;;;5025341;28;20109;-61
2022/05/24 11:51:41;;;;;;;2.35;0.90;;;21.00;83.20;;;;;;5017728;28;20042;-61
2022/05/24 11:54:30;;;;;;;1.70;0.65;;;20.20;86.50;;;;;;5027652;28;20018;-61
2022/05/24 11:57:16;;;;;;;4.15;0.77;;;20.50;87.80;;;;;;4976057;28;20052;-60
2022/05/24 11:59:51;;;;;;;1.25;0.90;;;20.90;84.90;;;;;;5027359;28;20025;-61
2022/05/24 12:02:19;;;;;;;1.98;0.60;;;20.70;82.90;;;;;;5027273;28;20029;-60
2022/05/24 12:07:55;;;;;;;2.63;0.68;;;20.10;85.60;;;;;;5028462;28;20041;-61
2022/05/24 12:10:20;;;;;;;3.35;0.55;;;20.10;83.80;;;;;;5025574;28;20021;-61
2022/05/24 12:12:49;;;;;;;3.25;0.60;;;19.70;84.90;;;;;;5024192;28;20017;-61
2022/05/24 12:15:20;;;;;;;2.95;0.80;;;19.40;83.40;;;;;;5022527;28;20064;-61
2022/05/24 12:17:52;;;;;;;1.55;0.50;;;19.20;84.10;;;;;;5026362;28;20557;-61
2022/05/24 12:20:47;;;;;;;3.15;1.10;;;18.70;82.40;;;;;;5023800;28;20034;-60
2022/05/24 12:23:13;;;;;;;2.85;0.75;;;18.70;84.90;;;;;;5026370;28;20026;-62
2022/05/24 12:26:04;;;;;;;2.13;0.80;;;18.60;87.00;;;;;;5022441;28;20067;-61
2022/05/24 12:28:35;;;;;;;2.13;1.02;;;18.60;86.80;;;;;;5026318;28;20035;-61
2022/05/24 12:31:14;;;;;;;3.40;1.17;;;18.70;89.70;;;;;;5029775;28;20029;-60
2022/05/24 12:33:43;;;;;;;1.95;1.23;;;18.90;90.00;;;;;;5021799;28;20053;-61
2022/05/24 12:36:31;;;;;;;1.90;0.60;;;19.30;90.50;;;;;;5025615;28;20032;-61
2022/05/24 12:39:17;;;;;;;2.15;0.70;;;19.60;91.20;;;;;;5004481;28;20150;-60
2022/05/24 12:41:45;;;;;;;3.35;1.00;;;20.10;89.70;;;;;;5025012;28;20116;-62
2022/05/24 12:44:19;;;;;;;3.50;1.08;;;20.10;88.40;;;;;;5026485;28;20537;-60
2022/05/24 12:46:49;;;;;;;6.20;0.85;;;20.20;90.20;;;;;;5021939;28;20526;-61
2022/05/24 12:49:21;;;;;;;3.50;1.15;;;19.90;86.50;;;;;;5027808;28;20023;-61
2022/05/24 12:51:47;;;;;;;1.90;0.82;;;19.80;91.10;;;;;;5010586;28;20479;-62
2022/05/24 12:54:12;;;;;;;3.42;1.45;;;19.90;90.80;;;;;;5026442;28;20022;-61
2022/05/24 12:56:39;;;;;;;1.05;0.80;;;19.80;90.20;;;;;;5020632;28;20018;-61
2022/05/24 12:59:12;;;;;;;4.85;1.17;;;19.50;86.50;;;;;;5027272;28;20029;-60
2022/05/24 13:01:41;;;;;;;0.90;0.68;;;19.50;89.90;;;;;;4999190;28;20026;-61
2022/05/24 13:04:27;;;;;;;1.48;0.60;;;19.60;89.30;;;;;;5003724;28;20041;-61
2022/05/24 13:06:53;;;;;;;1.90;0.68;;;19.60;87.30;;;;;;5012455;28;20032;-61
2022/05/24 13:09:25;;;;;;;8.75;1.73;;;19.80;88.50;;;;;;5028699;28;20017;-61
2022/05/24 13:12:07;;;;;;;2.67;0.77;;;19.70;86.00;;;;;;5016669;28;20061;-61
2022/05/24 13:14:42;;;;;;;1.60;1.00;;;20.10;84.40;;;;;;5035143;28;20427;-63
2022/05/24 13:17:09;;;;;;;1.38;0.63;;;19.90;84.10;;;;;;5017741;28;20021;-61
2022/05/24 13:19:52;;;;;;;2.47;0.73;;;19.70;85.00;;;;;;5031186;28;20068;-60
2022/05/24 13:22:20;;;;;;;1.10;0.70;;;19.80;81.70;;;;;;5017677;28;20048;-61
2022/05/24 13:24:59;;;;;;;1.13;0.60;;;19.90;82.80;;;;;;5021345;28;20858;-60
2022/05/24 13:27:25;;;;;;;1.55;0.70;;;20.00;81.10;;;;;;5009840;28;20080;-62
2022/05/24 13:35:30;;;;;;;2.17;0.60;;;19.30;84.80;;;;;;5008754;28;20037;-62
2022/05/24 13:37:57;;;;;;;1.48;0.70;;;19.40;84.40;;;;;;5018977;28;20040;-61
2022/05/24 13:40:51;;;;;;;1.58;0.93;;;19.30;82.20;;;;;;5004301;28;20042;-61
2022/05/24 13:43:39;;;;;;;1.98;0.98;;;19.40;83.30;;;;;;5021138;28;20221;-61